Aviation Digital Data Service (ADDS)

Output produced by METARs form (1826 UTC 16 August 2018)
found at http://www.aviationweather.gov/adds/metars/
 
RPLC 161800Z 18006KT 8000 -RA SCT020 OVC090 26/24 Q1006 RMK A2971
TAF RPLC 161700Z 1618/1724 18005KT 9999 SCT020 BKN100 TX31/1706Z TN25/1624Z 
     TEMPO 1618/1624 32005KT 8000 -SHRA SCT020 OVC100
       
RPVD 161800Z 20004KT 9999 FEW015 SCT220 26/23 Q1004 RMK A2965
TAF RPVD 161700Z 1618/1718 22006KT 9999 FEW015 BKN220 
     TEMPO 1618/1624 32003KT FEW015 SCT080
       
RPMD 161800Z 00000KT 9999 FEW016 BKN290 26/25 Q1005 RMK A2968
TAF RPMD 161700Z 1618/1718 17005KT 9999 FEW016 SCT090 BKN290 
     TEMPO 1618/1624 VRB02KT FEW016 BKN090
       
TAF RPVK 161700Z 1618/1718 24008KT 9999 FEW016 SCT070 BKN220 
     TEMPO 1618/1624 23005KT 9000 FEW016 BKN070
       
RPLI 161800Z 09002KT 9999 FEW019 OVC100 25/25 Q1002 NOSIG RMK A2959
TAF RPLI 161700Z 1618/1718 20010KT 9999 FEW019 SCT100 BKN290 
     TEMPO 1618/1624 18005KT 7000 -TSRA FEW018CB SCT019 OVC100
       
RPVM 161800Z 25008KT 9999 FEW020 BKN090 28/22 Q1005 RMK A2968
TAF RPVM 161700Z 1618/1724 24010KT 9999 FEW020 BKN300 
     TEMPO 1618/1624 25008KT FEW020 BKN100 
     TEMPO 1700/1706 23010KT 9000 -SHRA FEW018CB FEW020 BKN100
       
RPLB 161800Z 21007KT 9000 -RA SCT018 OVC070 27/26 Q1005 RMK A2968
TAF RPLB 161700Z 1618/1718 22004KT 9999 SCT018 BKN080 TX30/1706Z TN25/1622Z 
     TEMPO 1618/1624 20012KT 8000 -TSRA FEW016CB BKN018 OVC080
       
RPLC 161800Z 18006KT 8000 -RA SCT020 OVC090 26/24 Q1006 RMK A2971
TAF RPLC 161700Z 1618/1724 18005KT 9999 SCT020 BKN100 TX31/1706Z TN25/1624Z 
     TEMPO 1618/1624 32005KT 8000 -SHRA SCT020 OVC100
       
RPLI 161800Z 09002KT 9999 FEW019 OVC100 25/25 Q1002 NOSIG RMK A2959
TAF RPLI 161700Z 1618/1718 20010KT 9999 FEW019 SCT100 BKN290 
     TEMPO 1618/1624 18005KT 7000 -TSRA FEW018CB SCT019 OVC100
       
RPLL 161800Z 00000KT 5000 -RA BKN020 OVC080 24/24 Q1005 NOSIG RMK A2968
TAF RPLL 161700Z 1618/1724 26008KT 9999 FEW023 SCT100 TX31/1706Z TN25/1618Z 
     TEMPO 1618/1624 23004KT 8000 -SHRA FEW020CB SCT023 OVC090 
     TEMPO 1709/1709 25013KT 8000 -TSRA FEW020CB SCT023 BKN100
       
RPMD 161800Z 00000KT 9999 FEW016 BKN290 26/25 Q1005 RMK A2968
TAF RPMD 161700Z 1618/1718 17005KT 9999 FEW016 SCT090 BKN290 
     TEMPO 1618/1624 VRB02KT FEW016 BKN090
       
TAF RPMR 161700Z 1618/1718 16006KT 9999 FEW020 BKN250 
     TEMPO 1618/1624 VRB02KT FEW018 SCT080 BKN250
       
RPMZ 161800Z 00000KT 9999 SCT016CB OVC090 27/26 Q1006 RMK A29781 CB ALL QDS OHD
TAF RPMZ 161700Z 1618/1718 22006KT 9999 FEW017 BKN300 
     TEMPO 1618/1624 00000KT FEW017 BKN090
       
RPVD 161800Z 20004KT 9999 FEW015 SCT220 26/23 Q1004 RMK A2965
TAF RPVD 161700Z 1618/1718 22006KT 9999 FEW015 BKN220 
     TEMPO 1618/1624 32003KT FEW015 SCT080
       
TAF RPVK 161700Z 1618/1718 24008KT 9999 FEW016 SCT070 BKN220 
     TEMPO 1618/1624 23005KT 9000 FEW016 BKN070
       
RPVM 161800Z 25008KT 9999 FEW020 BKN090 28/22 Q1005 RMK A2968
TAF RPVM 161700Z 1618/1724 24010KT 9999 FEW020 BKN300 
     TEMPO 1618/1624 25008KT FEW020 BKN100 
     TEMPO 1700/1706 23010KT 9000 -SHRA FEW018CB FEW020 BKN100
       
RPVP 161800Z 18001KT 9999 FEW019 BKN240 26/24 Q1006 RMK A2971
TAF RPVP 161700Z 1618/1718 19006KT 9999 FEW019 BKN240 
     TEMPO 1618/1624 27003KT FEW019 SCT080 BKN240
       
RPLL 161800Z 00000KT 5000 -RA BKN020 OVC080 24/24 Q1005 NOSIG RMK A2968
TAF RPLL 161700Z 1618/1724 26008KT 9999 FEW023 SCT100 TX31/1706Z TN25/1618Z 
     TEMPO 1618/1624 23004KT 8000 -SHRA FEW020CB SCT023 OVC090 
     TEMPO 1709/1709 25013KT 8000 -TSRA FEW020CB SCT023 BKN100
       
RPVP 161800Z 18001KT 9999 FEW019 BKN240 26/24 Q1006 RMK A2971
TAF RPVP 161700Z 1618/1718 19006KT 9999 FEW019 BKN240 
     TEMPO 1618/1624 27003KT FEW019 SCT080 BKN240
       
RPLB 161800Z 21007KT 9000 -RA SCT018 OVC070 27/26 Q1005 RMK A2968
TAF RPLB 161700Z 1618/1718 22004KT 9999 SCT018 BKN080 TX30/1706Z TN25/1622Z 
     TEMPO 1618/1624 20012KT 8000 -TSRA FEW016CB BKN018 OVC080
       
TAF RPMR 161700Z 1618/1718 16006KT 9999 FEW020 BKN250 
     TEMPO 1618/1624 VRB02KT FEW018 SCT080 BKN250
       
RPMZ 161800Z 00000KT 9999 SCT016CB OVC090 27/26 Q1006 RMK A29781 CB ALL QDS OHD
TAF RPMZ 161700Z 1618/1718 22006KT 9999 FEW017 BKN300 
     TEMPO 1618/1624 00000KT FEW017 BKN090